Time;durP1;ratioP1;P1;durP2;ratioP2;P2;SDS_P1;SDS_P2;PMS_P1;PMS_P2;Temp;Humidity;BMP_temperature;BMP_pressure;BME280_temperature;BME280_humidity;BME280_pressure;Samples;Min_cycle;Max_cycle;Signal;HPM_P1;HPM_P2
2021/09/18 00:00:14;;;;;;;2.65;1.33;;;15.70;99.90;;;;;;5090372;28;20020;-81
2021/09/18 00:02:39;;;;;;;3.35;1.48;;;15.70;99.90;;;;;;5090087;28;20032;-80
2021/09/18 00:05:05;;;;;;;2.13;1.23;;;15.60;99.90;;;;;;5090080;28;20016;-81
2021/09/18 00:07:31;;;;;;;1.65;1.13;;;15.50;99.90;;;;;;5090547;28;20032;-80
2021/09/18 00:09:56;;;;;;;2.10;1.38;;;15.50;99.90;;;;;;5088944;28;20492;-81
2021/09/18 00:12:22;;;;;;;3.80;1.40;;;15.50;99.90;;;;;;5089967;28;20504;-81
2021/09/18 00:14:48;;;;;;;3.03;2.17;;;15.40;99.90;;;;;;5090466;28;20135;-79
2021/09/18 00:17:13;;;;;;;2.17;1.58;;;15.40;99.90;;;;;;5088132;28;20475;-81
2021/09/18 00:19:39;;;;;;;4.10;1.23;;;15.40;99.90;;;;;;5088908;28;20392;-81
2021/09/18 00:22:05;;;;;;;1.73;1.20;;;15.40;99.90;;;;;;5089835;28;20504;-80
2021/09/18 00:24:30;;;;;;;2.25;1.42;;;15.40;99.90;;;;;;5090155;28;20485;-80
2021/09/18 00:26:56;;;;;;;2.83;1.63;;;15.50;99.90;;;;;;5089689;28;20043;-80
2021/09/18 00:29:22;;;;;;;3.28;2.10;;;15.50;99.90;;;;;;5089845;28;20032;-81
2021/09/18 00:31:47;;;;;;;2.42;1.98;;;15.50;99.90;;;;;;5089775;28;20028;-81
2021/09/18 00:34:13;;;;;;;2.83;2.03;;;15.60;99.90;;;;;;5088535;28;20028;-81
2021/09/18 00:36:39;;;;;;;2.97;2.13;;;15.70;99.90;;;;;;5088535;28;20131;-81
2021/09/18 00:39:04;;;;;;;5.85;3.03;;;15.70;99.90;;;;;;5089876;28;20032;-82
2021/09/18 00:41:30;;;;;;;4.65;2.63;;;15.70;99.90;;;;;;5089379;28;20057;-81
2021/09/18 00:43:58;;;;;;;4.07;2.35;;;15.80;99.90;;;;;;5088333;28;20076;-81
2021/09/18 00:46:24;;;;;;;5.72;3.30;;;15.80;99.90;;;;;;5088153;28;20185;-82
2021/09/18 00:48:50;;;;;;;6.07;3.20;;;15.80;99.90;;;;;;5088160;28;20076;-81
2021/09/18 00:51:18;;;;;;;11.00;2.95;;;15.80;99.90;;;;;;5089325;28;20107;-79
2021/09/18 00:53:45;;;;;;;7.88;2.80;;;15.80;99.90;;;;;;5086769;28;20039;-80
2021/09/18 00:56:12;;;;;;;10.20;3.17;;;15.80;99.90;;;;;;5089121;28;20027;-81
2021/09/18 00:58:38;;;;;;;4.35;2.22;;;15.70;99.90;;;;;;5087271;28;20032;-80
2021/09/18 01:01:04;;;;;;;8.75;3.42;;;15.70;99.90;;;;;;5088393;28;20031;-79
2021/09/18 01:03:30;;;;;;;3.30;2.70;;;15.60;99.90;;;;;;5088194;28;20032;-80
2021/09/18 01:05:57;;;;;;;8.73;2.45;;;15.40;99.90;;;;;;5088736;28;20028;-80
2021/09/18 01:08:24;;;;;;;3.92;2.78;;;15.30;99.90;;;;;;5087107;28;20404;-80
2021/09/18 01:10:51;;;;;;;5.50;2.55;;;15.30;99.90;;;;;;5088401;28;20089;-80
2021/09/18 01:13:18;;;;;;;5.38;2.90;;;15.20;99.90;;;;;;5087113;28;20634;-79
2021/09/18 01:15:45;;;;;;;5.90;2.85;;;15.20;99.90;;;;;;5086535;28;20028;-80
2021/09/18 01:18:11;;;;;;;9.15;2.90;;;15.10;99.90;;;;;;5088290;28;20032;-80
2021/09/18 01:20:39;;;;;;;6.38;3.00;;;15.10;99.90;;;;;;5089685;28;20032;-83
2021/09/18 01:23:06;;;;;;;3.47;2.80;;;15.10;99.90;;;;;;5089490;28;20500;-82
2021/09/18 01:25:35;;;;;;;3.85;2.03;;;15.10;99.90;;;;;;5089301;28;20024;-81
2021/09/18 01:28:02;;;;;;;3.95;2.65;;;15.10;99.90;;;;;;5091023;28;20476;-81
2021/09/18 01:30:30;;;;;;;3.63;2.38;;;15.10;99.90;;;;;;5088019;28;20035;-81
2021/09/18 01:32:57;;;;;;;13.88;3.30;;;15.10;99.90;;;;;;5087235;28;20496;-80
2021/09/18 01:35:24;;;;;;;4.20;2.80;;;15.00;99.90;;;;;;5087211;28;20028;-81
2021/09/18 01:37:50;;;;;;;4.55;3.20;;;15.00;99.90;;;;;;5088123;28;20098;-81
2021/09/18 01:40:19;;;;;;;;;;;15.00;99.90;;;;;;5089364;28;20099;-82
2021/09/18 01:42:46;;;;;;;4.68;3.35;;;15.00;99.90;;;;;;5087500;28;20393;-82
2021/09/18 01:45:12;;;;;;;4.57;3.65;;;15.00;99.90;;;;;;5087206;28;20073;-82
2021/09/18 01:47:47;;;;;;;5.90;3.88;;;14.90;99.90;;;;;;5087930;28;20024;-82
2021/09/18 01:50:19;;;;;;;6.85;3.53;;;14.80;99.90;;;;;;5088838;28;20036;-81
2021/09/18 01:52:47;;;;;;;6.15;3.78;;;14.80;99.90;;;;;;5088387;28;20032;-81
2021/09/18 01:55:14;;;;;;;6.00;4.00;;;14.80;99.90;;;;;;5088725;28;20035;-82
2021/09/18 01:57:51;;;;;;;4.63;3.40;;;14.70;99.90;;;;;;5088740;28;20024;-81
2021/09/18 02:00:18;;;;;;;4.50;3.50;;;14.70;99.90;;;;;;5088705;28;20043;-81
2021/09/18 02:02:44;;;;;;;3.22;2.90;;;14.60;99.90;;;;;;5088541;28;20115;-82
2021/09/18 02:05:11;;;;;;;3.67;2.92;;;14.60;99.90;;;;;;5087463;28;20411;-81
2021/09/18 02:07:37;;;;;;;5.78;3.38;;;14.50;99.90;;;;;;5088796;28;20144;-82
2021/09/18 02:10:08;;;;;;;4.80;3.10;;;14.50;99.90;;;;;;5088431;28;20438;-81
2021/09/18 02:12:34;;;;;;;5.60;4.53;;;14.50;99.90;;;;;;5087067;28;20096;-81
2021/09/18 02:15:00;;;;;;;5.55;3.10;;;14.40;99.90;;;;;;5087156;28;20031;-81
2021/09/18 02:17:26;;;;;;;;;;;14.30;99.90;;;;;;5088775;28;20028;-82
2021/09/18 02:19:51;;;;;;;5.10;3.45;;;14.30;99.90;;;;;;5087453;28;20566;-81
2021/09/18 02:22:17;;;;;;;8.77;4.22;;;14.20;99.90;;;;;;5086504;28;20032;-80
2021/09/18 02:24:42;;;;;;;;;;;14.20;99.90;;;;;;5087081;28;20071;-79
2021/09/18 02:27:08;;;;;;;5.95;3.97;;;14.10;99.90;;;;;;5087150;28;19908;-79
2021/09/18 02:29:34;;;;;;;;;;;14.10;99.90;;;;;;5086241;28;20073;-80
2021/09/18 02:31:59;;;;;;;3.88;3.22;;;14.10;99.90;;;;;;5085886;28;19915;-79
2021/09/18 02:34:26;;;;;;;4.43;3.15;;;14.10;99.90;;;;;;5088213;28;20047;-82
2021/09/18 02:36:51;;;;;;;5.68;4.50;;;14.10;99.90;;;;;;5088219;28;20020;-81
2021/09/18 02:39:17;;;;;;;;;;;14.00;99.90;;;;;;5088684;28;20404;-82
2021/09/18 02:41:42;;;;;;;9.30;4.18;;;14.00;99.90;;;;;;5088120;28;19954;-82
2021/09/18 02:44:08;;;;;;;4.97;4.35;;;14.00;99.90;;;;;;5087598;28;20119;-82
2021/09/18 02:46:34;;;;;;;5.43;3.67;;;14.00;99.90;;;;;;5086314;28;20032;-82
2021/09/18 02:48:59;;;;;;;;;;;13.90;99.90;;;;;;5088746;28;20028;-81
2021/09/18 02:51:25;;;;;;;7.47;4.15;;;13.90;99.90;;;;;;5086377;28;19914;-81
2021/09/18 02:53:50;;;;;;;;;;;13.80;99.90;;;;;;5085436;28;20123;-82
2021/09/18 02:56:16;;;;;;;5.28;4.25;;;13.80;99.90;;;;;;5086234;28;19908;-82
2021/09/18 02:58:42;;;;;;;;;;;13.70;99.90;;;;;;5087777;28;20028;-82
2021/09/18 03:01:07;;;;;;;6.68;5.43;;;13.70;99.90;;;;;;5086680;28;20421;-80
2021/09/18 03:03:33;;;;;;;;;;;13.70;99.90;;;;;;5085363;28;20119;-82
2021/09/18 03:05:58;;;;;;;4.93;4.30;;;13.70;99.90;;;;;;5091069;28;19965;-82
2021/09/18 03:08:24;;;;;;;;;;;13.60;99.90;;;;;;5091657;28;20701;-81
2021/09/18 03:10:51;;;;;;;5.63;4.90;;;13.60;99.90;;;;;;5091912;28;19946;-82
2021/09/18 03:13:17;;;;;;;5.55;4.80;;;13.50;99.90;;;;;;5091551;28;20059;-81
2021/09/18 03:15:42;;;;;;;;;;;13.50;99.90;;;;;;5091077;28;20058;-80
2021/09/18 03:18:08;;;;;;;6.05;4.15;;;13.40;99.90;;;;;;5091582;28;19908;-82
2021/09/18 03:20:34;;;;;;;;;;;13.40;99.90;;;;;;5091883;28;20039;-81
2021/09/18 03:23:00;;;;;;;6.68;4.57;;;13.30;99.90;;;;;;5091166;28;19930;-80
2021/09/18 03:25:25;;;;;;;;;;;13.30;99.90;;;;;;5090024;28;20016;-81
2021/09/18 03:27:51;;;;;;;7.22;4.22;;;13.20;99.90;;;;;;5091003;28;20390;-82
2021/09/18 03:30:17;;;;;;;6.88;4.25;;;13.10;99.90;;;;;;5091041;28;20030;-81
2021/09/18 03:32:42;;;;;;;;;;;13.10;99.90;;;;;;5091672;28;20115;-80
2021/09/18 03:35:09;;;;;;;4.80;3.58;;;13.00;99.90;;;;;;5091726;28;19943;-81
2021/09/18 03:37:35;;;;;;;5.22;3.50;;;12.90;99.90;;;;;;5092152;28;20024;-82
2021/09/18 03:40:06;;;;;;;;;;;12.90;99.90;;;;;;5090698;28;20446;-81
2021/09/18 03:42:31;;;;;;;9.98;5.05;;;12.90;99.90;;;;;;5090639;28;19978;-81
2021/09/18 03:44:57;;;;;;;;;;;12.80;99.90;;;;;;5089376;28;20036;-81
2021/09/18 03:47:22;;;;;;;6.07;4.60;;;12.80;99.90;;;;;;5089481;28;19908;-81
2021/09/18 03:49:48;;;;;;;;;;;12.70;99.90;;;;;;5090503;28;20032;-81
2021/09/18 03:52:13;;;;;;;4.78;4.15;;;12.70;99.90;;;;;;5089902;28;20188;-80
2021/09/18 03:54:39;;;;;;;;;;;12.70;99.90;;;;;;5090398;28;20043;-79
2021/09/18 03:57:05;;;;;;;5.60;4.28;;;12.60;99.90;;;;;;5088637;28;20292;-80
2021/09/18 03:59:30;;;;;;;;;;;12.60;99.90;;;;;;5089998;28;20024;-81
2021/09/18 04:01:56;;;;;;;5.47;4.65;;;12.60;99.90;;;;;;5090249;28;20330;-79
2021/09/18 04:04:21;;;;;;;7.82;4.88;;;12.50;99.90;;;;;;5088853;28;20031;-81
2021/09/18 04:06:48;;;;;;;;;;;12.50;99.90;;;;;;5090693;28;20034;-80
2021/09/18 04:09:14;;;;;;;8.02;4.13;;;12.50;99.90;;;;;;5089802;28;19904;-81
2021/09/18 04:11:40;;;;;;;5.68;4.82;;;12.40;99.90;;;;;;5089087;28;20688;-80
2021/09/18 04:14:05;;;;;;;;;;;12.40;99.90;;;;;;5089641;28;20036;-78
2021/09/18 04:16:31;;;;;;;6.18;4.00;;;12.40;99.90;;;;;;5089184;28;19914;-81
2021/09/18 04:18:57;;;;;;;5.60;4.00;;;12.40;99.90;;;;;;5088649;28;20035;-80
2021/09/18 04:21:22;;;;;;;;;;;12.40;99.90;;;;;;5088778;28;20392;-81
2021/09/18 04:23:48;;;;;;;6.55;4.28;;;12.40;99.90;;;;;;5089451;28;19915;-79
2021/09/18 04:26:14;;;;;;;;;;;12.30;99.90;;;;;;5088305;28;20397;-78
2021/09/18 04:28:40;;;;;;;7.32;4.30;;;12.30;99.90;;;;;;5089736;28;20236;-82
2021/09/18 04:31:05;;;;;;;;;;;12.30;99.90;;;;;;5090939;28;20054;-82
2021/09/18 04:33:31;;;;;;;6.60;2.80;;;12.30;99.90;;;;;;5090116;28;20427;-82
2021/09/18 04:35:57;;;;;;;;;;;12.30;99.90;;;;;;5089540;28;20137;-81
2021/09/18 04:38:22;;;;;;;4.60;2.78;;;12.50;99.90;;;;;;5090521;28;20376;-82
2021/09/18 04:40:48;;;;;;;3.58;2.60;;;12.50;99.90;;;;;;5089573;28;20142;-83
2021/09/18 04:43:13;;;;;;;3.08;2.42;;;12.60;99.90;;;;;;5088596;28;20477;-82
2021/09/18 04:45:39;;;;;;;;;;;12.70;99.90;;;;;;5089500;28;20038;-83
2021/09/18 04:48:05;;;;;;;3.72;2.40;;;12.80;99.90;;;;;;5089648;28;20375;-83
2021/09/18 04:50:30;;;;;;;;;;;12.90;99.90;;;;;;5090446;28;20020;-83
2021/09/18 04:52:56;;;;;;;2.90;2.08;;;13.00;99.90;;;;;;5089108;28;19912;-83
2021/09/18 04:55:21;;;;;;;;;;;13.20;99.90;;;;;;5089729;28;20032;-82
2021/09/18 04:57:47;;;;;;;2.22;1.80;;;13.30;99.90;;;;;;5089284;28;20360;-82
2021/09/18 05:00:12;;;;;;;;;;;13.40;99.90;;;;;;5090078;28;20060;-83
2021/09/18 05:02:38;;;;;;;3.22;2.40;;;13.50;99.90;;;;;;5090042;28;20277;-82
2021/09/18 05:05:05;;;;;;;4.80;2.20;;;13.50;99.90;;;;;;5089777;28;20043;-83
2021/09/18 05:07:31;;;;;;;3.60;1.90;;;13.60;99.90;;;;;;5088368;28;20655;-82
2021/09/18 05:09:57;;;;;;;;;;;13.70;99.90;;;;;;5090172;28;20012;-83
2021/09/18 05:12:23;;;;;;;3.88;2.25;;;13.90;99.90;;;;;;5087850;28;19916;-82
2021/09/18 05:14:48;;;;;;;2.72;1.42;;;14.00;99.90;;;;;;5089279;28;20024;-83
2021/09/18 05:17:14;;;;;;;;;;;14.20;99.90;;;;;;5090023;28;20057;-84
2021/09/18 05:19:40;;;;;;;4.10;2.38;;;14.20;99.90;;;;;;5088516;28;19956;-83
2021/09/18 05:22:06;;;;;;;;;;;14.40;99.90;;;;;;5091103;28;20028;-84
2021/09/18 05:24:31;;;;;;;3.97;1.58;;;14.60;99.90;;;;;;5088704;28;19911;-82
2021/09/18 05:26:57;;;;;;;;;;;14.80;99.90;;;;;;5088734;28;20063;-82
2021/09/18 05:29:23;;;;;;;1.30;0.85;;;15.20;99.90;;;;;;5088110;28;20402;-82
2021/09/18 05:31:49;;;;;;;1.52;0.88;;;15.50;99.90;;;;;;5088858;28;20031;-82
2021/09/18 05:34:15;;;;;;;1.52;0.82;;;15.70;99.90;;;;;;5087216;28;20419;-81
2021/09/18 05:36:40;;;;;;;1.88;1.25;;;15.90;99.90;;;;;;5088185;28;20035;-82
2021/09/18 05:39:06;;;;;;;3.80;1.00;;;16.00;99.90;;;;;;5088858;28;20089;-82
2021/09/18 05:41:32;;;;;;;1.95;1.38;;;16.00;99.90;;;;;;5088826;28;20024;-82
2021/09/18 05:43:58;;;;;;;2.95;1.10;;;16.10;99.90;;;;;;5086443;28;20366;-83
2021/09/18 05:46:23;;;;;;;1.33;0.80;;;16.10;99.90;;;;;;5088699;28;20054;-83
2021/09/18 05:48:49;;;;;;;2.85;1.27;;;16.10;99.90;;;;;;5088111;28;20145;-82
2021/09/18 05:51:15;;;;;;;6.15;1.10;;;16.10;99.90;;;;;;5086574;28;20043;-81
2021/09/18 05:53:40;;;;;;;2.63;1.10;;;16.20;99.90;;;;;;5087386;28;20043;-81
2021/09/18 05:56:06;;;;;;;1.33;0.88;;;16.20;99.90;;;;;;5087318;28;20556;-82
2021/09/18 05:58:32;;;;;;;3.65;1.00;;;16.40;99.90;;;;;;5087397;28;20024;-82
2021/09/18 06:00:57;;;;;;;1.42;1.00;;;16.50;99.90;;;;;;5086735;28;20024;-82
2021/09/18 06:03:23;;;;;;;1.05;0.63;;;16.40;99.90;;;;;;5086575;28;20425;-82
2021/09/18 06:05:48;;;;;;;1.23;0.95;;;16.30;99.90;;;;;;5086044;28;20031;-82
2021/09/18 06:08:14;;;;;;;1.33;0.95;;;16.20;99.90;;;;;;5087996;28;20034;-84
2021/09/18 06:10:40;;;;;;;1.52;1.15;;;16.10;99.90;;;;;;5087155;28;20504;-80
2021/09/18 06:13:06;;;;;;;1.58;0.93;;;16.00;99.90;;;;;;5087148;28;20035;-83
2021/09/18 06:15:33;;;;;;;1.20;0.93;;;15.90;99.90;;;;;;5087416;28;20055;-82
2021/09/18 06:17:59;;;;;;;3.22;1.15;;;16.00;99.90;;;;;;5086875;28;20561;-83
2021/09/18 06:20:25;;;;;;;2.30;1.40;;;16.20;99.90;;;;;;5087164;28;20032;-83
2021/09/18 06:22:50;;;;;;;2.95;1.00;;;16.70;99.70;;;;;;5086477;28;20503;-81
2021/09/18 06:25:16;;;;;;;2.35;1.00;;;17.30;98.30;;;;;;5085558;28;20031;-84
2021/09/18 06:27:42;;;;;;;1.92;0.88;;;17.90;94.80;;;;;;5086854;28;20525;-84
2021/09/18 06:30:09;;;;;;;7.38;1.10;;;18.70;93.40;;;;;;5087276;28;20025;-83
2021/09/18 06:32:35;;;;;;;3.50;1.02;;;19.40;91.70;;;;;;5085139;28;20031;-81
2021/09/18 06:35:01;;;;;;;1.50;0.88;;;20.30;87.90;;;;;;5086560;28;20473;-83
2021/09/18 06:37:27;;;;;;;3.08;1.00;;;21.00;83.30;;;;;;5085978;28;20020;-82
2021/09/18 06:39:52;;;;;;;1.52;0.90;;;21.70;78.30;;;;;;5087188;28;20115;-84
2021/09/18 06:42:18;;;;;;;1.48;0.80;;;22.60;73.10;;;;;;5086972;28;20729;-83
2021/09/18 06:44:45;;;;;;;2.75;0.70;;;23.20;69.10;;;;;;5086951;28;20025;-84
2021/09/18 06:47:12;;;;;;;2.58;0.70;;;23.80;66.00;;;;;;5086972;28;20535;-81
2021/09/18 06:49:38;;;;;;;1.40;0.63;;;24.00;63.10;;;;;;5087131;28;20031;-80
2021/09/18 06:52:05;;;;;;;2.17;0.93;;;24.40;60.00;;;;;;5085603;28;20032;-80
2021/09/18 06:54:31;;;;;;;1.73;0.73;;;24.70;58.70;;;;;;5087175;28;20058;-81
2021/09/18 06:56:56;;;;;;;3.65;0.80;;;25.10;56.40;;;;;;5085425;28;20392;-80
2021/09/18 06:59:22;;;;;;;1.15;0.80;;;24.70;55.60;;;;;;5085870;28;20101;-81
2021/09/18 07:01:48;;;;;;;3.38;0.70;;;24.70;56.00;;;;;;5087324;28;20035;-81
2021/09/18 07:04:14;;;;;;;1.05;0.70;;;24.80;55.90;;;;;;5086751;28;20023;-81
2021/09/18 07:06:39;;;;;;;1.20;0.60;;;25.30;54.40;;;;;;5085821;28;20028;-80
2021/09/18 07:09:05;;;;;;;1.27;0.75;;;25.80;53.70;;;;;;5086176;28;20400;-82
2021/09/18 07:11:31;;;;;;;1.23;0.60;;;25.80;52.10;;;;;;5086603;28;20427;-81
2021/09/18 07:13:56;;;;;;;3.08;0.60;;;26.10;51.70;;;;;;5086507;28;20649;-80
2021/09/18 07:16:22;;;;;;;3.58;0.60;;;26.40;51.20;;;;;;5086514;28;20484;-81
2021/09/18 07:18:48;;;;;;;1.40;0.90;;;26.60;50.50;;;;;;5085208;28;20020;-81
2021/09/18 07:21:14;;;;;;;2.92;0.80;;;26.90;49.00;;;;;;5086398;28;20028;-82
2021/09/18 07:23:40;;;;;;;1.17;0.70;;;26.90;49.00;;;;;;5085068;28;20081;-80
2021/09/18 07:26:06;;;;;;;2.80;0.60;;;27.20;48.50;;;;;;5086443;28;20024;-81
2021/09/18 07:28:32;;;;;;;0.73;0.60;;;27.50;47.00;;;;;;5085846;28;20028;-82
2021/09/18 07:30:58;;;;;;;2.33;0.70;;;27.70;46.00;;;;;;5086436;28;20403;-81
2021/09/18 07:33:24;;;;;;;1.17;0.65;;;27.90;45.80;;;;;;5086255;28;20035;-81
2021/09/18 07:35:49;;;;;;;0.65;0.55;;;28.30;45.10;;;;;;5086207;28;20032;-82
2021/09/18 07:38:15;;;;;;;2.05;0.70;;;28.40;44.80;;;;;;5086369;28;20024;-82
2021/09/18 07:40:42;;;;;;;0.80;0.50;;;28.80;44.90;;;;;;5085997;28;20492;-81
2021/09/18 07:43:08;;;;;;;0.73;0.50;;;29.30;43.20;;;;;;5086354;28;20067;-82
2021/09/18 07:45:33;;;;;;;0.68;0.50;;;29.60;42.60;;;;;;5085582;28;20437;-81
2021/09/18 07:47:59;;;;;;;0.98;0.60;;;29.70;40.30;;;;;;5084060;28;20415;-81
2021/09/18 07:50:25;;;;;;;1.63;0.60;;;29.80;39.90;;;;;;5086089;28;20063;-82
2021/09/18 07:52:50;;;;;;;1.13;0.60;;;29.90;38.90;;;;;;5090546;28;20167;-82
2021/09/18 07:55:16;;;;;;;4.68;0.70;;;29.80;38.20;;;;;;5090408;28;20039;-83
2021/09/18 07:57:42;;;;;;;2.03;0.75;;;29.80;37.80;;;;;;5088405;28;20408;-82
2021/09/18 08:00:08;;;;;;;1.23;0.52;;;29.80;37.50;;;;;;5090205;28;20031;-81
2021/09/18 08:02:35;;;;;;;3.72;0.50;;;29.70;38.90;;;;;;5089669;28;20031;-82
2021/09/18 08:05:02;;;;;;;2.03;0.68;;;29.70;39.20;;;;;;5089046;28;20120;-82
2021/09/18 08:07:28;;;;;;;0.95;0.50;;;29.70;39.00;;;;;;5088238;28;20028;-82
2021/09/18 08:09:55;;;;;;;8.77;1.58;;;29.80;39.20;;;;;;5089696;28;20078;-82
2021/09/18 08:12:22;;;;;;;2.33;1.17;;;29.70;39.20;;;;;;5089548;28;20052;-81
2021/09/18 08:14:48;;;;;;;9.00;1.05;;;29.20;38.70;;;;;;5089662;28;20061;-80
2021/09/18 08:17:14;;;;;;;13.57;2.17;;;28.60;38.00;;;;;;5089857;28;20054;-82
2021/09/18 08:19:40;;;;;;;0.70;0.50;;;27.90;40.30;;;;;;5089331;28;20055;-81
2021/09/18 08:22:06;;;;;;;3.28;0.80;;;27.30;40.60;;;;;;5090188;28;20507;-82
2021/09/18 08:24:31;;;;;;;1.30;0.50;;;27.50;41.50;;;;;;5089823;28;20028;-81
2021/09/18 08:26:57;;;;;;;1.08;0.63;;;27.90;41.40;;;;;;5089492;28;20556;-81
2021/09/18 08:29:23;;;;;;;2.22;0.70;;;28.30;40.80;;;;;;5088100;28;20020;-81
2021/09/18 08:31:48;;;;;;;3.90;0.75;;;28.30;40.80;;;;;;5088468;28;20520;-82
2021/09/18 08:34:14;;;;;;;15.98;1.45;;;28.40;40.50;;;;;;5089724;28;20032;-81
2021/09/18 08:36:39;;;;;;;86.65;7.30;;;28.40;40.10;;;;;;5089691;28;20440;-82
2021/09/18 08:39:05;;;;;;;2.38;0.57;;;28.50;39.60;;;;;;5091205;28;20157;-81
2021/09/18 08:41:31;;;;;;;1.35;0.80;;;28.60;38.70;;;;;;5089144;28;20032;-81
2021/09/18 08:43:58;;;;;;;2.65;0.47;;;28.60;39.90;;;;;;5089217;28;20032;-81
2021/09/18 08:46:25;;;;;;;4.15;0.60;;;28.80;39.10;;;;;;5089200;28;20119;-80
2021/09/18 08:48:54;;;;;;;2.78;0.60;;;28.90;38.50;;;;;;5087642;28;20074;-82
2021/09/18 08:51:20;;;;;;;1.15;0.60;;;29.00;37.50;;;;;;5089314;28;20031;-80
2021/09/18 08:53:45;;;;;;;5.63;0.65;;;29.10;37.90;;;;;;5087743;28;20032;-81
2021/09/18 08:56:15;;;;;;;0.80;0.60;;;28.90;38.10;;;;;;5087749;28;20032;-80
2021/09/18 08:58:41;;;;;;;1.38;0.70;;;29.00;37.70;;;;;;5084725;28;20032;-80
2021/09/18 09:01:06;;;;;;;0.90;0.60;;;29.10;37.30;;;;;;5084836;28;20565;-81
2021/09/18 09:03:36;;;;;;;3.20;0.60;;;29.10;38.30;;;;;;5082496;28;20028;-80
2021/09/18 09:06:08;;;;;;;0.98;0.60;;;28.80;37.20;;;;;;5079147;28;20699;-81
2021/09/18 09:08:36;;;;;;;0.60;0.45;;;29.00;38.30;;;;;;5087695;28;20047;-81
2021/09/18 09:11:20;;;;;;;1.58;0.60;;;28.70;38.40;;;;;;5083136;28;20338;-80
2021/09/18 09:13:56;;;;;;;1.73;0.60;;;28.20;38.90;;;;;;5082169;28;20162;-81
2021/09/18 09:16:22;;;;;;;0.55;0.50;;;27.40;40.10;;;;;;5078036;28;20047;-82
2021/09/18 09:18:51;;;;;;;3.55;0.43;;;27.10;41.20;;;;;;5081632;28;20068;-82
2021/09/18 09:21:22;;;;;;;0.63;0.50;;;27.00;40.30;;;;;;5082987;28;20044;-82
2021/09/18 09:24:10;;;;;;;0.65;0.50;;;27.00;39.00;;;;;;5078404;28;20039;-81
2021/09/18 09:26:38;;;;;;;1.13;0.80;;;27.20;39.10;;;;;;5084340;28;20082;-82
2021/09/18 09:29:04;;;;;;;1.95;0.73;;;27.20;38.10;;;;;;5083023;28;20796;-83
2021/09/18 09:31:37;;;;;;;3.65;0.70;;;27.70;38.80;;;;;;5084261;28;20044;-83
2021/09/18 09:34:14;;;;;;;2.70;0.50;;;27.90;39.00;;;;;;5082677;28;20043;-82
2021/09/18 09:36:40;;;;;;;1.15;0.63;;;28.00;38.60;;;;;;5082981;28;20531;-83
2021/09/18 09:39:09;;;;;;;0.85;0.70;;;27.60;38.40;;;;;;5076212;28;20033;-82
2021/09/18 09:41:36;;;;;;;0.90;0.70;;;27.20;39.30;;;;;;5078737;28;20058;-83
2021/09/18 09:44:08;;;;;;;2.15;0.95;;;26.70;39.80;;;;;;5087260;28;20111;-84
2021/09/18 09:46:33;;;;;;;1.70;0.70;;;26.90;39.80;;;;;;5088769;28;20099;-84
2021/09/18 09:49:12;;;;;;;1.10;0.80;;;27.10;40.10;;;;;;5088931;28;20112;-83
2021/09/18 09:51:39;;;;;;;1.35;0.70;;;27.00;39.30;;;;;;5088574;28;20203;-84
2021/09/18 09:54:35;;;;;;;2.55;1.30;;;26.70;40.10;;;;;;5088848;28;20043;-84
2021/09/18 09:57:12;;;;;;;1.43;0.80;;;26.40;40.80;;;;;;5087932;28;20032;-82
2021/09/18 09:59:39;;;;;;;1.25;0.50;;;25.50;41.80;;;;;;5087101;28;20024;-83
2021/09/18 10:02:11;;;;;;;0.80;0.50;;;25.40;43.10;;;;;;5087338;28;20031;-83
2021/09/18 10:04:37;;;;;;;2.00;0.50;;;26.10;42.10;;;;;;5088135;28;20024;-83
2021/09/18 10:07:04;;;;;;;0.68;0.60;;;26.20;41.20;;;;;;5088429;28;20392;-83
2021/09/18 10:09:30;;;;;;;1.70;0.80;;;25.90;41.30;;;;;;5086736;28;20484;-84
2021/09/18 10:11:57;;;;;;;1.38;0.88;;;25.60;42.30;;;;;;5088477;28;20055;-83
2021/09/18 10:14:28;;;;;;;1.55;0.63;;;25.30;43.20;;;;;;5086272;28;20054;-84
2021/09/18 10:16:56;;;;;;;0.90;0.60;;;24.80;43.70;;;;;;5088832;28;20028;-83
2021/09/18 10:19:41;;;;;;;0.73;0.50;;;24.30;45.30;;;;;;5087319;28;20067;-82
2021/09/18 10:24:56;;;;;;;2.55;0.60;;;23.60;47.00;;;;;;5088718;28;20074;-83
2021/09/18 10:27:25;;;;;;;1.15;0.60;;;23.30;48.50;;;;;;5088720;28;20106;-83
2021/09/18 10:29:51;;;;;;;1.25;0.73;;;23.10;48.30;;;;;;5088716;28;20047;-83
2021/09/18 10:32:20;;;;;;;1.30;0.70;;;22.80;49.50;;;;;;5089148;28;20028;-83
2021/09/18 10:34:46;;;;;;;0.77;0.60;;;22.60;50.30;;;;;;5088374;28;20043;-84
2021/09/18 10:37:36;;;;;;;5.07;0.60;;;22.50;51.50;;;;;;5088529;28;20020;-83
2021/09/18 10:40:05;;;;;;;1.67;0.57;;;22.30;52.80;;;;;;5087498;28;20073;-84
2021/09/18 10:42:34;;;;;;;1.88;0.60;;;22.40;54.00;;;;;;5087168;28;20031;-84
2021/09/18 10:45:18;;;;;;;0.88;0.60;;;22.40;54.30;;;;;;5087346;28;20016;-84
2021/09/18 10:47:49;;;;;;;1.67;0.77;;;22.40;54.50;;;;;;5088822;28;20044;-82
2021/09/18 10:50:21;;;;;;;1.33;0.50;;;22.50;55.20;;;;;;5087152;28;20169;-84
2021/09/18 10:53:01;;;;;;;4.38;0.95;;;22.70;54.50;;;;;;5088056;28;20028;-82
2021/09/18 10:55:27;;;;;;;4.35;0.65;;;23.10;54.20;;;;;;5087249;28;20076;-84
2021/09/18 10:57:53;;;;;;;1.05;0.60;;;23.40;53.70;;;;;;5087437;28;20165;-83
2021/09/18 11:00:21;;;;;;;2.97;0.68;;;23.50;53.30;;;;;;5088531;28;20103;-82
2021/09/18 11:02:57;;;;;;;1.08;0.50;;;23.40;53.50;;;;;;5088006;28;20522;-83
2021/09/18 11:05:22;;;;;;;;;;;23.20;54.50;;;;;;5088727;28;20020;-83
2021/09/18 11:07:49;;;;;;;1.93;0.50;;;23.00;55.40;;;;;;5087907;28;20002;-83
2021/09/18 11:10:21;;;;;;;1.77;0.70;;;23.00;56.40;;;;;;5086315;28;20020;-83
2021/09/18 11:13:08;;;;;;;7.15;2.90;;;23.00;55.70;;;;;;5086806;28;20083;-84
2021/09/18 11:15:49;;;;;;;2.05;0.85;;;22.80;55.50;;;;;;5086887;28;20040;-84
2021/09/18 11:18:35;;;;;;;2.60;0.88;;;22.80;56.00;;;;;;5088541;28;20017;-84
2021/09/18 11:21:10;;;;;;;1.85;0.75;;;22.90;56.70;;;;;;5087233;28;20035;-84
2021/09/18 11:23:44;;;;;;;1.55;0.47;;;23.10;56.30;;;;;;5086960;28;20565;-83
2021/09/18 11:26:38;;;;;;;1.25;0.63;;;23.30;57.20;;;;;;5089746;28;20024;-83
2021/09/18 11:29:13;;;;;;;1.88;0.80;;;23.50;55.60;;;;;;5092906;28;20063;-84
2021/09/18 11:31:58;;;;;;;1.77;0.63;;;23.70;55.00;;;;;;5090892;28;20439;-83
2021/09/18 11:34:33;;;;;;;1.20;0.65;;;23.70;54.50;;;;;;5092242;28;20511;-82
2021/09/18 11:37:00;;;;;;;2.65;0.60;;;23.80;54.50;;;;;;5090800;28;20439;-82
2021/09/18 11:39:40;;;;;;;1.83;0.98;;;23.80;53.30;;;;;;5091535;28;20484;-83
2021/09/18 11:42:11;;;;;;;2.17;0.65;;;23.40;53.50;;;;;;5091711;28;20028;-83
2021/09/18 11:44:36;;;;;;;0.68;0.57;;;22.90;54.50;;;;;;5092088;28;20031;-82
2021/09/18 11:47:05;;;;;;;2.38;0.68;;;22.60;55.80;;;;;;5090787;28;20050;-82
2021/09/18 11:49:31;;;;;;;0.93;0.52;;;22.40;56.30;;;;;;5091969;28;20020;-83
2021/09/18 11:52:02;;;;;;;1.60;0.57;;;22.20;56.00;;;;;;5091976;28;20039;-83
2021/09/18 11:54:28;;;;;;;1.60;0.63;;;22.00;56.90;;;;;;5080270;28;20097;-82
2021/09/18 11:56:53;;;;;;;0.50;0.40;;;21.80;57.50;;;;;;5079424;28;20489;-83
2021/09/18 11:59:19;;;;;;;1.58;0.50;;;21.70;57.10;;;;;;5082437;28;20578;-82
2021/09/18 12:01:48;;;;;;;2.72;0.68;;;21.70;57.10;;;;;;5086193;28;20077;-83
2021/09/18 12:04:14;;;;;;;3.08;0.80;;;21.50;57.80;;;;;;5082219;28;20500;-82
2021/09/18 12:06:40;;;;;;;1.88;0.60;;;21.40;58.40;;;;;;5075766;28;20516;-81
2021/09/18 12:09:07;;;;;;;1.35;0.60;;;21.30;59.20;;;;;;5080774;28;20067;-82
2021/09/18 12:11:40;;;;;;;3.63;0.70;;;21.10;58.90;;;;;;5079546;28;20098;-82
2021/09/18 12:14:06;;;;;;;4.50;0.60;;;20.90;60.00;;;;;;5073770;28;20028;-82
2021/09/18 12:16:38;;;;;;;0.80;0.50;;;20.70;60.00;;;;;;5079600;28;20390;-82
2021/09/18 12:19:07;;;;;;;0.95;0.60;;;20.60;60.90;;;;;;5078068;28;20040;-81
2021/09/18 12:21:33;;;;;;;1.50;0.60;;;20.50;61.50;;;;;;5081154;28;20031;-82
2021/09/18 12:24:07;;;;;;;3.67;0.98;;;20.40;62.20;;;;;;5081355;28;20048;-81
2021/09/18 12:26:39;;;;;;;1.80;0.60;;;20.40;62.90;;;;;;5077506;28;20036;-82
2021/09/18 12:29:09;;;;;;;2.35;0.60;;;20.30;63.70;;;;;;5081079;28;20095;-81
2021/09/18 12:31:35;;;;;;;0.95;0.60;;;20.30;64.10;;;;;;5076356;28;20146;-82
2021/09/18 12:34:12;;;;;;;1.83;0.70;;;20.30;64.80;;;;;;5085277;28;20089;-82
2021/09/18 12:36:38;;;;;;;6.07;0.60;;;20.20;62.70;;;;;;5074766;28;20086;-83
2021/09/18 12:39:06;;;;;;;2.90;1.30;;;20.10;63.40;;;;;;5082547;28;20036;-83
2021/09/18 12:41:34;;;;;;;0.77;0.50;;;19.90;63.50;;;;;;5084089;28;20065;-82
2021/09/18 12:44:11;;;;;;;2.17;1.08;;;19.90;64.10;;;;;;5080040;28;20059;-82
2021/09/18 12:46:40;;;;;;;6.47;0.90;;;19.80;64.40;;;;;;5080114;28;20141;-82
2021/09/18 12:49:06;;;;;;;1.15;0.80;;;19.70;64.80;;;;;;5081219;28;20785;-82
2021/09/18 12:51:36;;;;;;;1.15;0.60;;;19.60;65.10;;;;;;5088903;28;20027;-84
2021/09/18 12:54:03;;;;;;;6.28;0.95;;;19.70;65.60;;;;;;5088547;28;20040;-82
2021/09/18 12:56:28;;;;;;;2.40;0.82;;;19.60;66.00;;;;;;5089868;28;20512;-84
2021/09/18 12:59:06;;;;;;;0.95;0.60;;;19.60;66.40;;;;;;5089057;28;20056;-83